East Butler, Pennsylvania
Current Conditions -  °F | °C
As of 3:55 PM on Tuesday 25 Nov 2014 (Local Time) from KBTP Reporting Station
Few Clouds Few Clouds  
Wind Chill: 37°   Ceiling: Unl
Heat Index: 43°   Visibility: 10mi
Dew Point: 27°   Wind: 10mph
Humidity: 53%   Direction: 280°W
Pressure: 30.07"   Gusts: 18mph
Location:  40.88°N, 79.85°W
Report Text: KBTP 252055Z AUTO 28009G16KT 10SM FEW044 06/M03 A3007 RMK AO1 52017
Loading
Personal Weather Stations






























Interactive Weather Map New forecast layout! Learn more

10-Day Weather Forecast

Advertisements
Track Severe Weather on mobile